Time;durP1;ratioP1;P1;durP2;ratioP2;P2;SDS_P1;SDS_P2;PMS_P1;PMS_P2;Temp;Humidity;BMP_temperature;BMP_pressure;BME280_temperature;BME280_humidity;BME280_pressure;Samples;Min_cycle;Max_cycle;Signal;HPM_P1;HPM_P2
2023/01/11 00:01:19;;;;;;;;;;;11.80;99.90;;;;;;5039408;28;20038;-75
2023/01/11 00:03:45;;;;;;;14.98;5.88;;;11.80;99.90;;;;;;5040796;28;19924;-74
2023/01/11 00:06:14;;;;;;;11.50;6.20;;;11.70;99.90;;;;;;5041128;28;20033;-75
2023/01/11 00:08:40;;;;;;;14.95;5.15;;;11.80;99.90;;;;;;5033584;28;20036;-76
2023/01/11 00:11:13;;;;;;;20.52;6.35;;;11.80;99.90;;;;;;5024541;28;20022;-75
2023/01/11 00:13:42;;;;;;;16.52;6.85;;;11.80;99.90;;;;;;5045033;28;20430;-75
2023/01/11 00:16:08;;;;;;;11.38;5.63;;;11.90;99.90;;;;;;5058381;28;20400;-77
2023/01/11 00:18:35;;;;;;;11.00;5.75;;;11.90;99.90;;;;;;5059654;28;20044;-76
2023/01/11 00:21:04;;;;;;;10.07;5.20;;;11.90;99.90;;;;;;5064165;28;20086;-74
2023/01/11 00:23:35;;;;;;;11.18;5.35;;;11.90;99.90;;;;;;5055031;28;20020;-75
2023/01/11 00:26:05;;;;;;;7.03;4.47;;;11.90;99.90;;;;;;5062927;28;20074;-74
2023/01/11 00:28:30;;;;;;;7.22;4.15;;;11.90;99.90;;;;;;5065095;28;20044;-75
2023/01/11 00:30:56;;;;;;;11.00;4.75;;;11.90;99.90;;;;;;5063677;28;20078;-74
2023/01/11 00:33:22;;;;;;;10.75;4.70;;;11.90;99.90;;;;;;5057515;28;20031;-75
2023/01/11 00:36:00;;;;;;;11.43;5.25;;;11.90;99.90;;;;;;5059743;28;20085;-76
2023/01/11 00:49:25;;;;;;;16.27;4.93;;;11.90;99.90;;;;;;5067058;28;20055;-76
2023/01/11 00:51:51;;;;;;;12.30;3.90;;;11.90;99.90;;;;;;5055324;28;20457;-75
2023/01/11 00:54:16;;;;;;;7.43;3.10;;;11.90;99.90;;;;;;5063579;28;20028;-76
2023/01/11 00:56:42;;;;;;;8.07;3.67;;;11.90;99.90;;;;;;5042147;28;20047;-75
2023/01/11 00:59:08;;;;;;;10.15;3.53;;;11.90;99.90;;;;;;5063578;28;20045;-75
2023/01/11 01:01:33;;;;;;;10.73;3.60;;;11.90;99.90;;;;;;5060559;28;20020;-76
2023/01/11 01:04:00;;;;;;;9.75;3.70;;;11.90;99.90;;;;;;5070459;28;20070;-75
2023/01/11 01:06:26;;;;;;;7.18;3.00;;;12.00;99.90;;;;;;5056893;28;20358;-76
2023/01/11 01:08:52;;;;;;;8.52;3.20;;;12.00;99.90;;;;;;5065622;28;20036;-75
2023/01/11 01:11:17;;;;;;;10.32;3.30;;;12.00;99.90;;;;;;5073533;28;20032;-75
2023/01/11 01:16:27;;;;;;;7.85;3.47;;;11.90;99.90;;;;;;5071229;28;20062;-75
2023/01/11 01:18:55;;;;;;;7.00;3.00;;;11.90;99.90;;;;;;5067277;28;20040;-75
2023/01/11 01:21:22;;;;;;;14.02;3.70;;;11.90;99.90;;;;;;5067575;28;20029;-74
2023/01/11 01:23:49;;;;;;;5.50;2.95;;;11.90;99.90;;;;;;5057100;28;20392;-75
2023/01/11 01:26:15;;;;;;;14.25;3.67;;;11.90;99.90;;;;;;5061610;28;20439;-75
2023/01/11 01:28:40;;;;;;;7.15;2.92;;;11.90;99.90;;;;;;5072869;28;20032;-75
2023/01/11 01:31:06;;;;;;;16.63;3.97;;;11.90;99.90;;;;;;5043926;28;20424;-76
2023/01/11 01:33:32;;;;;;;15.55;3.63;;;11.90;99.90;;;;;;5054866;28;20033;-75
2023/01/11 01:35:59;;;;;;;18.30;4.68;;;11.80;99.90;;;;;;5062845;28;20480;-75
2023/01/11 01:38:25;;;;;;;17.08;3.70;;;11.80;99.90;;;;;;5067562;28;20380;-76
2023/01/11 01:40:51;;;;;;;9.48;2.67;;;11.80;99.90;;;;;;5071593;28;20020;-75
2023/01/11 01:43:17;;;;;;;9.20;3.30;;;11.80;99.90;;;;;;5071574;28;20100;-75
2023/01/11 01:45:42;;;;;;;11.77;3.55;;;11.80;99.90;;;;;;5062092;28;20395;-75
2023/01/11 01:48:13;;;;;;;15.05;3.40;;;11.70;99.90;;;;;;5069934;28;20040;-75
2023/01/11 01:50:44;;;;;;;13.07;3.83;;;11.70;99.90;;;;;;5067116;28;20392;-75
2023/01/11 01:53:14;;;;;;;11.85;3.25;;;11.70;99.90;;;;;;5071182;28;20036;-75
2023/01/11 01:55:46;;;;;;;8.55;2.70;;;11.70;99.90;;;;;;5071902;28;20024;-75
2023/01/11 01:58:19;;;;;;;;;;;11.70;99.90;;;;;;5072129;28;20037;-75
2023/01/11 02:00:45;;;;;;;13.10;3.10;;;11.70;99.90;;;;;;5068111;28;19913;-75
2023/01/11 02:03:16;;;;;;;15.80;3.08;;;11.70;99.90;;;;;;5053519;28;20102;-76
2023/01/11 02:05:42;;;;;;;12.43;3.42;;;11.60;99.90;;;;;;5069419;28;20017;-75
2023/01/11 02:08:12;;;;;;;14.48;3.38;;;11.70;99.90;;;;;;5064657;28;20072;-75
2023/01/11 02:10:38;;;;;;;17.80;3.95;;;11.70;99.90;;;;;;5070748;28;20146;-74
2023/01/11 02:13:08;;;;;;;16.98;3.67;;;11.60;99.90;;;;;;5068754;28;20099;-75
2023/01/11 02:15:34;;;;;;;18.17;3.40;;;11.60;99.90;;;;;;5072270;28;20041;-75
2023/01/11 02:18:00;;;;;;;20.98;3.92;;;11.60;99.90;;;;;;5064672;28;20452;-74
2023/01/11 02:20:33;;;;;;;19.00;3.75;;;11.60;99.90;;;;;;5067984;28;20058;-75
2023/01/11 02:23:15;;;;;;;17.88;4.38;;;11.60;99.90;;;;;;5043653;28;20469;-76
2023/01/11 02:26:17;;;;;;;16.45;3.75;;;11.60;99.90;;;;;;5070355;28;20430;-77
2023/01/11 02:29:06;;;;;;;20.97;4.17;;;11.60;99.90;;;;;;5055048;28;20115;-76
2023/01/11 02:31:40;;;;;;;19.80;4.05;;;11.50;99.90;;;;;;5067524;28;20075;-77
2023/01/11 02:34:08;;;;;;;21.48;3.85;;;11.50;99.90;;;;;;5068577;28;20107;-75
2023/01/11 02:36:53;;;;;;;27.48;5.80;;;11.40;99.90;;;;;;5056398;28;20033;-74
2023/01/11 02:39:33;;;;;;;24.65;4.22;;;11.40;99.90;;;;;;5070466;28;20139;-75
2023/01/11 02:45:17;;;;;;;21.05;3.78;;;11.40;99.90;;;;;;5067111;28;20404;-75
2023/01/11 02:47:46;;;;;;;22.13;3.50;;;11.40;99.90;;;;;;5065499;28;20056;-74
2023/01/11 02:50:29;;;;;;;27.30;4.22;;;11.30;99.90;;;;;;5072304;28;20017;-74
2023/01/11 02:53:03;;;;;;;28.98;4.18;;;11.40;99.90;;;;;;5065714;28;20028;-76
2023/01/11 02:55:33;;;;;;;25.88;4.40;;;11.30;99.90;;;;;;5062718;28;20063;-75
2023/01/11 02:58:01;;;;;;;26.77;4.47;;;11.30;99.90;;;;;;5065455;28;20472;-74
2023/01/11 03:00:27;;;;;;;26.38;4.68;;;11.30;99.90;;;;;;5065071;28;20056;-73
2023/01/11 03:03:18;;;;;;;28.48;5.00;;;11.30;99.90;;;;;;5062279;28;20091;-76
2023/01/11 03:05:51;;;;;;;26.73;4.65;;;11.30;99.90;;;;;;5058172;28;20033;-77
2023/01/11 03:08:23;;;;;;;29.17;4.80;;;11.30;99.90;;;;;;5063620;28;20414;-76
2023/01/11 03:11:13;;;;;;;25.88;4.57;;;11.30;99.90;;;;;;5067201;28;20033;-77
2023/01/11 03:14:03;;;;;;;31.35;4.53;;;11.30;99.90;;;;;;5067637;28;20036;-75
2023/01/11 03:16:56;;;;;;;30.65;4.90;;;11.30;99.90;;;;;;5060256;28;20110;-77
2023/01/11 03:19:50;;;;;;;31.30;4.80;;;11.30;99.90;;;;;;5052806;28;20048;-77
2023/01/11 03:22:23;;;;;;;33.70;5.25;;;11.30;99.90;;;;;;5044420;28;20040;-74
2023/01/11 03:24:57;;;;;;;42.55;5.57;;;11.20;99.90;;;;;;5052355;28;20123;-75
2023/01/11 03:27:41;;;;;;;41.42;6.22;;;11.20;99.90;;;;;;5052828;28;20021;-77
2023/01/11 03:30:36;;;;;;;44.95;6.07;;;11.20;99.90;;;;;;5066361;28;20040;-77
2023/01/11 03:33:09;;;;;;;36.70;6.15;;;11.20;99.90;;;;;;5067783;28;20490;-75
2023/01/11 03:35:50;;;;;;;38.30;6.03;;;11.20;99.90;;;;;;5067956;28;20044;-74
2023/01/11 03:38:26;;;;;;;29.02;5.50;;;11.20;99.90;;;;;;5071312;28;20468;-74
2023/01/11 03:40:57;;;;;;;38.03;5.00;;;11.20;99.90;;;;;;5071088;28;20040;-76
2023/01/11 03:43:24;;;;;;;37.22;5.72;;;11.20;99.90;;;;;;5062600;28;20247;-77
2023/01/11 03:45:52;;;;;;;35.10;5.25;;;11.20;99.90;;;;;;5059137;28;20480;-77
2023/01/11 03:48:32;;;;;;;43.80;6.35;;;11.20;99.90;;;;;;5059860;28;20060;-76
2023/01/11 03:51:00;;;;;;;31.95;5.80;;;11.20;99.90;;;;;;5068149;28;20150;-77
2023/01/11 03:53:30;;;;;;;30.48;5.40;;;11.20;99.90;;;;;;5064611;28;20025;-76
2023/01/11 03:55:58;;;;;;;38.83;5.97;;;11.20;99.90;;;;;;5060038;28;20099;-73
2023/01/11 03:58:27;;;;;;;28.02;5.85;;;11.20;99.90;;;;;;5061135;28;20436;-74
2023/01/11 04:00:54;;;;;;;34.47;6.38;;;11.20;99.90;;;;;;5071633;28;20444;-75
2023/01/11 04:03:21;;;;;;;37.80;5.88;;;11.20;99.90;;;;;;5060486;28;20113;-75
2023/01/11 04:05:51;;;;;;;29.20;5.88;;;11.20;99.90;;;;;;5072245;28;20029;-75
2023/01/11 04:08:16;;;;;;;36.97;6.30;;;11.20;99.90;;;;;;5067814;28;20025;-74
2023/01/11 04:10:42;;;;;;;33.85;5.97;;;11.20;99.90;;;;;;5069698;28;20032;-74
2023/01/11 04:13:07;;;;;;;44.10;6.03;;;11.20;99.90;;;;;;5059299;28;20029;-73
2023/01/11 04:15:34;;;;;;;37.78;6.43;;;11.20;99.90;;;;;;5080393;28;20049;-75
2023/01/11 04:18:04;;;;;;;31.85;5.25;;;11.30;99.90;;;;;;5065741;28;20155;-75
2023/01/11 04:20:35;;;;;;;33.72;5.55;;;11.20;99.90;;;;;;5068670;28;20110;-75
2023/01/11 04:23:01;;;;;;;30.85;5.00;;;11.30;99.90;;;;;;5067094;28;20044;-74
2023/01/11 04:25:27;;;;;;;45.10;6.47;;;11.30;99.90;;;;;;5068923;28;20465;-72
2023/01/11 04:27:52;;;;;;;25.40;4.57;;;11.30;99.90;;;;;;5058694;28;20025;-76
2023/01/11 04:30:18;;;;;;;26.60;4.13;;;11.30;99.90;;;;;;5067009;28;20078;-73
2023/01/11 04:32:44;;;;;;;33.83;4.45;;;11.20;99.90;;;;;;5059465;28;20385;-75
2023/01/11 04:35:09;;;;;;;28.30;4.90;;;11.20;99.90;;;;;;5058741;28;20028;-75
2023/01/11 04:37:35;;;;;;;37.05;4.35;;;11.20;99.90;;;;;;5069265;28;20416;-74
2023/01/11 04:40:01;;;;;;;26.83;4.75;;;11.20;99.90;;;;;;5059782;28;20017;-72
2023/01/11 04:42:26;;;;;;;31.42;4.60;;;11.20;99.90;;;;;;5067591;28;20033;-74
2023/01/11 04:44:52;;;;;;;36.80;6.10;;;11.10;99.90;;;;;;5058572;28;20025;-73
2023/01/11 04:47:20;;;;;;;37.03;5.15;;;11.20;99.90;;;;;;5071139;28;20028;-74
2023/01/11 04:49:46;;;;;;;36.40;4.95;;;11.20;99.90;;;;;;5062192;28;20078;-72
2023/01/11 04:52:14;;;;;;;34.03;4.93;;;11.20;99.90;;;;;;5063971;28;20048;-74
2023/01/11 04:54:40;;;;;;;29.10;4.25;;;11.20;99.90;;;;;;5068856;28;20036;-74
2023/01/11 04:57:09;;;;;;;31.35;5.07;;;11.20;99.90;;;;;;5057667;28;20020;-74
2023/01/11 04:59:34;;;;;;;36.10;6.15;;;11.20;99.90;;;;;;5073669;28;20047;-72
2023/01/11 05:02:00;;;;;;;29.50;4.78;;;11.30;99.90;;;;;;5065668;28;20025;-73
2023/01/11 05:04:26;;;;;;;32.05;5.78;;;11.30;99.90;;;;;;5060799;28;20035;-72
2023/01/11 05:06:51;;;;;;;24.60;3.95;;;11.30;99.90;;;;;;5070524;28;20047;-73
2023/01/11 05:09:17;;;;;;;31.48;4.10;;;11.30;99.90;;;;;;5058413;28;20029;-74
2023/01/11 05:11:43;;;;;;;19.40;3.20;;;11.20;99.90;;;;;;5068225;28;20033;-73
2023/01/11 05:14:09;;;;;;;20.13;3.60;;;11.30;99.90;;;;;;5064966;28;20033;-72
2023/01/11 05:16:35;;;;;;;24.20;4.78;;;11.30;99.90;;;;;;5065437;28;20119;-73
2023/01/11 05:19:01;;;;;;;26.83;3.35;;;11.20;99.90;;;;;;5058317;28;20063;-73
2023/01/11 05:21:30;;;;;;;26.70;3.58;;;11.10;99.90;;;;;;5069625;28;20100;-71
2023/01/11 05:24:01;;;;;;;29.40;4.93;;;11.10;99.90;;;;;;5062627;28;20025;-73
2023/01/11 05:26:33;;;;;;;25.23;3.92;;;11.00;99.90;;;;;;5061329;28;20033;-72
2023/01/11 05:29:00;;;;;;;20.58;3.38;;;11.00;99.90;;;;;;5064069;28;20398;-72
2023/01/11 05:31:27;;;;;;;36.05;5.30;;;11.00;99.90;;;;;;5069903;28;20032;-72
2023/01/11 05:33:55;;;;;;;26.42;3.30;;;10.90;99.90;;;;;;5058198;28;20070;-71
2023/01/11 05:36:22;;;;;;;31.80;3.78;;;10.90;99.90;;;;;;5066286;28;20155;-71
2023/01/11 05:38:49;;;;;;;27.15;4.45;;;10.90;99.90;;;;;;5058743;28;20045;-71
2023/01/11 05:41:16;;;;;;;21.50;3.60;;;10.80;99.90;;;;;;5070696;28;20025;-72
2023/01/11 05:46:32;;;;;;;18.73;3.80;;;10.80;99.90;;;;;;5073878;28;20043;-72
2023/01/11 05:48:58;;;;;;;23.13;3.17;;;10.80;99.90;;;;;;5057003;28;20029;-71
2023/01/11 05:51:34;;;;;;;16.55;3.33;;;10.80;99.90;;;;;;5069765;28;20074;-72
2023/01/11 05:54:03;;;;;;;25.65;3.33;;;10.70;99.90;;;;;;5063037;28;20537;-72
2023/01/11 05:56:29;;;;;;;17.90;2.88;;;10.70;99.90;;;;;;5060881;28;20080;-72
2023/01/11 05:58:54;;;;;;;23.25;3.35;;;10.70;99.90;;;;;;5051394;28;20593;-72
2023/01/11 06:01:22;;;;;;;16.77;3.15;;;10.70;99.90;;;;;;5057370;28;20461;-72
2023/01/11 06:03:48;;;;;;;22.23;3.15;;;10.80;99.90;;;;;;5066006;28;20036;-72
2023/01/11 06:06:14;;;;;;;22.40;3.35;;;10.80;99.90;;;;;;5053779;28;20025;-71
2023/01/11 06:08:40;;;;;;;25.80;3.78;;;10.80;99.90;;;;;;5067419;28;20361;-72
2023/01/11 06:11:06;;;;;;;16.17;2.78;;;10.80;99.90;;;;;;5056679;28;20036;-71
2023/01/11 06:13:32;;;;;;;17.70;3.38;;;10.90;99.90;;;;;;5067369;28;20541;-71
2023/01/11 06:16:03;;;;;;;22.63;3.35;;;10.90;99.90;;;;;;5062248;28;20444;-71
2023/01/11 06:18:31;;;;;;;18.90;3.10;;;10.90;99.90;;;;;;5070378;28;20044;-71
2023/01/11 06:20:57;;;;;;;24.35;3.53;;;10.80;99.90;;;;;;5058045;28;20037;-71
2023/01/11 06:23:23;;;;;;;22.50;2.55;;;10.80;99.90;;;;;;5063131;28;20035;-71
2023/01/11 06:25:49;;;;;;;27.15;3.78;;;10.90;99.90;;;;;;5065258;28;20033;-71
2023/01/11 06:28:15;;;;;;;22.02;3.53;;;10.90;99.90;;;;;;5048668;28;20583;-71
2023/01/11 06:30:40;;;;;;;23.67;3.10;;;10.80;99.90;;;;;;5067816;28;20433;-71
2023/01/11 06:33:06;;;;;;;20.50;3.22;;;10.80;99.90;;;;;;5056719;28;20500;-71
2023/01/11 06:35:35;;;;;;;27.65;3.70;;;10.80;99.90;;;;;;5058276;28;20055;-71
2023/01/11 06:38:01;;;;;;;17.75;3.33;;;10.70;99.90;;;;;;5063451;28;20029;-71
2023/01/11 06:40:27;;;;;;;21.80;3.67;;;10.60;99.90;;;;;;5058564;28;20033;-71
2023/01/11 06:42:53;;;;;;;30.65;4.90;;;10.50;99.90;;;;;;5067768;28;20032;-71
2023/01/11 06:45:18;;;;;;;16.40;2.97;;;10.40;99.90;;;;;;5072989;28;20046;-71
2023/01/11 06:47:44;;;;;;;20.88;3.10;;;10.30;99.90;;;;;;5072328;28;20029;-71
2023/01/11 06:50:10;;;;;;;24.17;3.47;;;10.30;99.90;;;;;;5071391;28;20029;-71
2023/01/11 06:52:35;;;;;;;24.58;2.97;;;10.20;99.90;;;;;;5070307;28;20020;-71
2023/01/11 06:55:02;;;;;;;27.15;3.13;;;10.10;99.90;;;;;;5056021;28;20473;-71
2023/01/11 06:57:28;;;;;;;21.55;3.58;;;10.00;99.90;;;;;;5069844;28;20033;-71
2023/01/11 06:59:53;;;;;;;20.13;2.67;;;9.90;99.90;;;;;;5071093;28;20041;-71
2023/01/11 07:02:19;;;;;;;21.17;3.70;;;9.90;99.90;;;;;;5061267;28;20025;-72
2023/01/11 07:04:44;;;;;;;26.58;3.75;;;9.90;99.90;;;;;;5072275;28;20033;-71
2023/01/11 07:07:10;;;;;;;21.20;4.03;;;9.80;99.90;;;;;;5055195;28;20427;-71
2023/01/11 07:09:36;;;;;;;24.15;4.20;;;9.70;99.90;;;;;;5070727;28;20484;-71
2023/01/11 07:12:01;;;;;;;30.83;4.50;;;9.70;99.90;;;;;;5062899;28;20751;-70
2023/01/11 07:14:27;;;;;;;15.48;2.92;;;9.60;99.90;;;;;;5069951;28;20058;-71
2023/01/11 07:16:52;;;;;;;30.15;4.00;;;9.70;99.90;;;;;;5063619;28;20536;-71
2023/01/11 07:19:18;;;;;;;43.72;5.05;;;9.70;99.90;;;;;;5068058;28;20500;-70
2023/01/11 07:21:43;;;;;;;24.70;3.92;;;9.60;99.90;;;;;;5040724;28;20443;-70
2023/01/11 07:24:09;;;;;;;26.35;3.50;;;9.60;99.90;;;;;;5064290;28;20020;-71
2023/01/11 07:26:40;;;;;;;20.75;3.25;;;9.60;99.90;;;;;;5065432;28;20465;-70
2023/01/11 07:29:06;;;;;;;17.92;2.92;;;9.60;99.90;;;;;;5070600;28;20025;-70
2023/01/11 07:31:32;;;;;;;23.67;3.53;;;9.50;99.90;;;;;;5056283;28;20111;-70
2023/01/11 07:33:57;;;;;;;26.35;3.13;;;9.60;99.90;;;;;;5066650;28;20163;-70
2023/01/11 07:36:23;;;;;;;20.40;3.08;;;9.50;99.90;;;;;;5059322;28;20025;-70
2023/01/11 07:38:48;;;;;;;29.35;3.97;;;9.60;99.90;;;;;;5067736;28;20090;-70
2023/01/11 07:43:58;;;;;;;30.35;5.22;;;9.50;99.90;;;;;;5062518;28;20047;-71
2023/01/11 07:46:23;;;;;;;28.67;3.85;;;9.50;99.90;;;;;;5063467;28;20418;-71
2023/01/11 07:48:49;;;;;;;21.35;3.05;;;9.50;99.90;;;;;;5056084;28;20033;-71
2023/01/11 07:51:19;;;;;;;23.98;3.92;;;9.50;99.90;;;;;;5068398;28;20033;-71
2023/01/11 07:53:45;;;;;;;21.50;3.33;;;9.50;99.90;;;;;;5059344;28;20029;-71
2023/01/11 07:56:11;;;;;;;23.65;3.63;;;9.50;99.90;;;;;;5061167;28;20440;-70
2023/01/11 07:58:36;;;;;;;20.83;3.85;;;9.50;99.90;;;;;;5066091;28;20072;-70
2023/01/11 08:01:02;;;;;;;16.08;3.10;;;9.50;99.90;;;;;;5055300;28;20756;-71
2023/01/11 08:03:29;;;;;;;22.25;3.45;;;9.40;99.90;;;;;;5051184;28;20464;-72
2023/01/11 08:05:54;;;;;;;21.65;3.17;;;9.40;99.90;;;;;;5060171;28;20599;-70
2023/01/11 08:08:20;;;;;;;18.73;3.72;;;9.40;99.90;;;;;;5063179;28;20028;-71
2023/01/11 08:10:45;;;;;;;22.05;3.17;;;9.40;99.90;;;;;;5056528;28;20033;-70
2023/01/11 08:15:57;;;;;;;24.77;3.90;;;9.30;99.90;;;;;;5056057;28;20068;-71
2023/01/11 08:18:23;;;;;;;23.85;3.22;;;9.30;99.90;;;;;;5070721;28;20449;-71
2023/01/11 08:20:52;;;;;;;24.30;3.85;;;9.30;99.90;;;;;;5061899;28;20051;-70
2023/01/11 08:23:17;;;;;;;18.40;2.92;;;9.30;99.90;;;;;;5057425;28;20025;-70
2023/01/11 08:25:43;;;;;;;20.33;3.63;;;9.30;99.90;;;;;;5061841;28;20033;-71
2023/01/11 08:28:10;;;;;;;25.65;3.92;;;9.30;99.90;;;;;;5058202;28;20082;-70
2023/01/11 08:30:36;;;;;;;21.90;2.97;;;9.30;99.90;;;;;;5064746;28;20461;-70
2023/01/11 08:33:04;;;;;;;28.80;4.00;;;9.30;99.90;;;;;;5054555;28;20055;-70
2023/01/11 08:35:30;;;;;;;16.30;3.42;;;9.20;99.90;;;;;;5066567;28;20499;-70
2023/01/11 08:37:56;;;;;;;21.23;3.20;;;9.20;99.90;;;;;;5059935;28;20469;-70
2023/01/11 08:40:24;;;;;;;23.20;3.53;;;9.20;99.90;;;;;;5062246;28;20166;-70
2023/01/11 08:42:53;;;;;;;26.70;4.18;;;9.20;99.90;;;;;;5071644;28;20112;-70
2023/01/11 08:45:19;;;;;;;25.73;2.83;;;9.20;99.90;;;;;;5056969;28;20032;-70
2023/01/11 08:47:45;;;;;;;26.55;3.22;;;9.20;99.90;;;;;;5061662;28;20582;-70
2023/01/11 08:50:11;;;;;;;22.55;4.07;;;9.20;99.90;;;;;;5064576;28;20048;-71
2023/01/11 08:52:37;;;;;;;24.25;4.03;;;9.20;99.90;;;;;;5061032;28;20377;-71
2023/01/11 08:55:06;;;;;;;23.27;3.42;;;9.20;99.90;;;;;;5071236;28;20025;-70
2023/01/11 08:57:31;;;;;;;24.23;3.92;;;9.30;99.90;;;;;;5060287;28;20029;-71
2023/01/11 08:59:57;;;;;;;20.48;3.10;;;9.20;99.90;;;;;;5066328;28;20033;-70
2023/01/11 09:02:23;;;;;;;23.90;4.55;;;9.30;99.90;;;;;;5067295;28;20028;-71
2023/01/11 09:04:48;;;;;;;29.13;4.22;;;9.40;99.90;;;;;;5058737;28;20094;-71
2023/01/11 09:07:14;;;;;;;31.92;5.40;;;9.40;99.90;;;;;;5072094;28;20089;-70
2023/01/11 09:09:40;;;;;;;15.35;3.25;;;9.40;99.90;;;;;;5059909;28;20032;-70
2023/01/11 09:12:05;;;;;;;22.05;3.17;;;9.50;99.90;;;;;;5064484;28;20096;-70
2023/01/11 09:14:31;;;;;;;26.70;4.53;;;9.50;99.90;;;;;;5068294;28;20330;-70
2023/01/11 09:16:56;;;;;;;21.40;3.92;;;9.60;99.90;;;;;;5064982;28;20097;-70
2023/01/11 09:19:22;;;;;;;20.92;4.75;;;9.50;99.90;;;;;;5070278;28;20499;-71
2023/01/11 09:21:48;;;;;;;16.35;2.85;;;9.50;99.90;;;;;;5062429;28;20025;-69
2023/01/11 09:24:13;;;;;;;22.27;3.78;;;9.50;99.90;;;;;;5063494;28;20051;-71
2023/01/11 09:26:41;;;;;;;25.05;3.83;;;9.60;99.90;;;;;;5068793;28;20043;-69
2023/01/11 09:29:06;;;;;;;25.52;3.70;;;9.60;99.90;;;;;;5057755;28;20025;-70
2023/01/11 09:31:32;;;;;;;23.42;5.05;;;9.70;99.90;;;;;;5077768;28;20063;-69
2023/01/11 09:33:58;;;;;;;26.67;4.68;;;9.80;99.90;;;;;;5065633;28;20044;-70
2023/01/11 09:36:25;;;;;;;23.40;3.35;;;9.80;99.90;;;;;;5066205;28;20032;-69
2023/01/11 09:38:51;;;;;;;23.17;4.32;;;9.90;99.90;;;;;;5056851;28;20041;-69
2023/01/11 09:41:32;;;;;;;23.38;4.07;;;9.90;99.90;;;;;;5069932;28;20037;-70
2023/01/11 09:44:20;;;;;;;21.27;3.20;;;9.90;99.90;;;;;;5062935;28;20480;-70
2023/01/11 09:46:51;;;;;;;20.77;3.47;;;10.00;99.90;;;;;;5058193;28;20497;-70
2023/01/11 09:49:30;;;;;;;24.08;3.38;;;10.10;99.90;;;;;;5070476;28;20050;-70
2023/01/11 09:52:20;;;;;;;22.58;4.07;;;10.10;99.90;;;;;;5058427;28;20115;-70
2023/01/11 09:54:47;;;;;;;20.15;2.97;;;10.20;99.90;;;;;;5057768;28;20037;-70
2023/01/11 09:57:31;;;;;;;29.45;3.97;;;10.20;99.90;;;;;;5057200;28;20029;-70
2023/01/11 10:00:32;;;;;;;22.95;4.03;;;10.40;99.90;;;;;;5064761;28;20040;-69
2023/01/11 10:03:19;;;;;;;20.20;3.90;;;10.50;99.90;;;;;;5066940;28;20115;-70
2023/01/11 10:06:24;;;;;;;35.13;4.65;;;10.60;99.90;;;;;;5060986;28;20449;-70
2023/01/11 10:09:06;;;;;;;24.98;3.78;;;10.90;99.90;;;;;;5057864;28;20146;-70
2023/01/11 10:12:04;;;;;;;20.38;3.20;;;11.30;99.90;;;;;;5042644;28;20115;-70
2023/01/11 10:14:57;;;;;;;19.95;3.42;;;11.60;99.90;;;;;;5059168;28;20041;-70
2023/01/11 10:18:08;;;;;;;29.40;4.05;;;11.90;99.90;;;;;;5068547;28;20435;-70
2023/01/11 10:20:42;;;;;;;20.88;3.38;;;12.40;99.90;;;;;;5058674;28;20083;-71
2023/01/11 10:23:23;;;;;;;22.55;4.25;;;12.60;99.90;;;;;;5060823;28;20071;-69
2023/01/11 10:25:54;;;;;;;24.50;4.20;;;12.50;99.90;;;;;;5064784;28;20077;-70
2023/01/11 10:28:30;;;;;;;19.40;3.53;;;12.10;99.90;;;;;;5078396;28;20044;-70
2023/01/11 10:41:53;;;;;;;22.45;3.00;;;12.40;99.90;;;;;;5062716;28;20094;-71
2023/01/11 10:44:30;;;;;;;20.77;3.38;;;12.50;99.90;;;;;;5068367;28;20021;-70
2023/01/11 10:46:56;;;;;;;16.05;2.50;;;12.70;99.90;;;;;;5064400;28;20033;-70
2023/01/11 10:50:03;;;;;;;23.50;3.67;;;12.80;99.90;;;;;;5067378;28;20032;-71
2023/01/11 10:52:40;;;;;;;24.33;3.85;;;13.00;99.90;;;;;;5036047;28;20048;-70
2023/01/11 10:55:27;;;;;;;18.90;3.67;;;13.10;99.90;;;;;;5064544;28;20033;-70
2023/01/11 10:58:08;;;;;;;26.85;4.07;;;13.00;99.90;;;;;;5061274;28;20056;-71
2023/01/11 11:01:07;;;;;;;27.60;3.42;;;12.70;99.90;;;;;;5064975;28;20037;-70
2023/01/11 11:04:01;;;;;;;22.13;3.13;;;12.50;99.90;;;;;;5064562;28;20486;-70
2023/01/11 11:06:26;;;;;;;17.33;2.97;;;12.70;99.90;;;;;;5061877;28;20036;-71
2023/01/11 11:09:06;;;;;;;20.58;3.40;;;12.70;99.90;;;;;;5067913;28;20032;-71
2023/01/11 11:11:39;;;;;;;26.50;4.05;;;12.50;99.90;;;;;;5056108;28;20036;-70
2023/01/11 11:14:30;;;;;;;24.02;3.47;;;12.20;99.90;;;;;;5071753;28;20066;-71
2023/01/11 11:17:05;;;;;;;26.20;3.55;;;12.10;99.90;;;;;;5066857;28;20051;-71
2023/01/11 11:19:32;;;;;;;27.08;3.65;;;12.00;99.90;;;;;;5067577;28;20029;-69
2023/01/11 11:21:58;;;;;;;21.95;3.53;;;11.90;99.90;;;;;;5059950;28;20031;-69
2023/01/11 11:24:39;;;;;;;22.58;3.97;;;12.00;99.90;;;;;;5059982;28;20040;-69
2023/01/11 11:27:24;;;;;;;31.92;4.43;;;12.20;99.90;;;;;;5068082;28;20032;-70
2023/01/11 11:29:55;;;;;;;19.45;4.00;;;12.60;99.90;;;;;;5058286;28;20032;-69
2023/01/11 11:32:26;;;;;;;23.90;3.75;;;12.90;99.90;;;;;;5071117;28;20066;-71
2023/01/11 11:34:52;;;;;;;23.10;3.47;;;12.90;99.90;;;;;;5071011;28;20043;-71
2023/01/11 11:37:30;;;;;;;20.08;3.13;;;12.90;99.90;;;;;;5064684;28;20033;-69
2023/01/11 11:39:56;;;;;;;20.52;3.40;;;12.70;99.90;;;;;;5064652;28;20113;-70
2023/01/11 11:42:22;;;;;;;20.48;3.20;;;12.50;99.90;;;;;;5071700;28;20025;-70
2023/01/11 11:45:14;;;;;;;22.95;3.47;;;12.40;99.90;;;;;;5070365;28;20028;-69
2023/01/11 11:47:40;;;;;;;19.85;3.95;;;12.60;99.90;;;;;;5064906;28;20077;-70
2023/01/11 11:50:18;;;;;;;19.42;2.90;;;12.60;99.90;;;;;;5056230;28;20032;-70
2023/01/11 11:52:49;;;;;;;17.52;3.35;;;12.60;99.90;;;;;;5056942;28;20059;-70
2023/01/11 11:55:15;;;;;;;23.55;3.83;;;12.40;99.90;;;;;;5067654;28;20582;-70
2023/01/11 11:57:42;;;;;;;20.42;3.90;;;12.10;99.90;;;;;;5066786;28;20735;-69
2023/01/11 12:00:26;;;;;;;24.95;4.20;;;11.90;99.90;;;;;;5060928;28;20028;-70
2023/01/11 12:03:00;;;;;;;18.33;3.05;;;11.90;99.90;;;;;;5069485;28;20555;-70
2023/01/11 12:05:26;;;;;;;21.15;3.22;;;12.10;99.90;;;;;;5070128;28;20029;-70
2023/01/11 12:07:52;;;;;;;22.23;4.13;;;12.40;99.90;;;;;;5067413;28;20021;-69
2023/01/11 12:10:22;;;;;;;21.60;3.70;;;12.40;99.90;;;;;;5071703;28;20029;-70
2023/01/11 12:13:02;;;;;;;24.33;3.42;;;12.50;99.90;;;;;;5066938;28;20067;-70
2023/01/11 12:15:29;;;;;;;23.02;3.38;;;12.50;99.90;;;;;;5069993;28;20053;-70
2023/01/11 12:18:21;;;;;;;20.02;3.22;;;12.50;99.90;;;;;;5056312;28;20071;-70
2023/01/11 12:20:48;;;;;;;16.92;3.25;;;12.50;99.90;;;;;;5058258;28;20031;-69
2023/01/11 12:23:18;;;;;;;24.48;3.67;;;12.50;99.90;;;;;;5072532;28;20047;-70
2023/01/11 12:25:56;;;;;;;18.70;2.70;;;12.50;99.90;;;;;;5074386;28;20050;-70
2023/01/11 12:29:06;;;;;;;22.73;3.15;;;12.60;99.90;;;;;;5063687;28;20033;-70
2023/01/11 12:32:14;;;;;;;16.83;3.30;;;12.50;99.90;;;;;;5056742;28;20040;-70
2023/01/11 12:35:03;;;;;;;24.77;3.58;;;12.30;99.90;;;;;;5071576;28;20036;-69
2023/01/11 12:37:53;;;;;;;20.98;4.13;;;11.90;99.90;;;;;;5069533;28;20040;-70
2023/01/11 12:40:32;;;;;;;21.70;4.22;;;11.70;99.90;;;;;;5059923;28;20044;-71
2023/01/11 12:43:20;;;;;;;24.90;3.78;;;11.60;99.90;;;;;;5055516;28;20024;-70
2023/01/11 12:46:14;;;;;;;29.20;4.53;;;11.60;99.90;;;;;;5029835;28;20028;-70
2023/01/11 12:49:01;;;;;;;26.00;4.18;;;11.70;99.90;;;;;;5068171;28;20040;-69
2023/01/11 12:51:43;;;;;;;18.52;3.72;;;11.60;99.90;;;;;;5070843;28;20028;-70
2023/01/11 12:54:26;;;;;;;26.67;4.87;;;11.60;99.90;;;;;;5069816;28;20028;-70
2023/01/11 12:57:23;;;;;;;31.30;5.00;;;11.70;99.90;;;;;;5072039;28;20308;-70
2023/01/11 13:00:21;;;;;;;18.70;3.92;;;11.80;99.90;;;;;;5054917;28;20072;-70
2023/01/11 13:02:58;;;;;;;26.27;3.63;;;11.90;99.90;;;;;;5064928;28;20020;-70
2023/01/11 13:05:42;;;;;;;22.40;3.60;;;12.00;99.90;;;;;;5055131;28;20056;-69
2023/01/11 13:08:33;;;;;;;19.70;3.20;;;12.00;99.90;;;;;;5057795;28;20052;-70
2023/01/11 13:11:34;;;;;;;25.88;4.45;;;12.00;99.90;;;;;;5054273;28;20427;-71
2023/01/11 13:14:23;;;;;;;25.40;3.85;;;11.90;99.90;;;;;;5068262;28;20039;-69
2023/01/11 13:17:14;;;;;;;28.65;4.50;;;11.90;99.90;;;;;;5066679;28;20072;-70
2023/01/11 13:19:46;;;;;;;28.48;4.32;;;12.00;99.90;;;;;;5070594;28;20044;-70
2023/01/11 13:22:14;;;;;;;;;;;12.10;99.90;;;;;;5063505;28;20123;-70
2023/01/11 13:24:44;;;;;;;28.25;3.90;;;12.10;99.90;;;;;;5058156;28;19916;-69
2023/01/11 13:27:19;;;;;;;23.90;3.47;;;12.00;99.90;;;;;;5080884;28;20522;-69
2023/01/11 13:29:48;;;;;;;21.05;4.13;;;12.00;99.90;;;;;;5069051;28;20075;-69
2023/01/11 13:32:18;;;;;;;23.65;4.55;;;12.00;99.90;;;;;;5073373;28;20460;-69
2023/01/11 13:34:50;;;;;;;26.52;4.20;;;12.10;99.90;;;;;;5073135;28;20396;-69
2023/01/11 13:37:27;;;;;;;25.10;4.20;;;12.10;99.90;;;;;;5073416;28;20105;-70
2023/01/11 13:39:58;;;;;;;17.70;3.15;;;11.90;99.90;;;;;;5063326;28;20056;-69